sensor_id;sensor_type;location;lat;lon;timestamp;P1;durP1;ratioP1;P2;durP2;ratioP2
2009;SDS011;1008;47.404;8.502;2023-02-15T00:00:54;9.47;;;6.20;;
2009;SDS011;1008;47.404;8.502;2023-02-15T00:03:20;12.40;;;8.23;;
2009;SDS011;1008;47.404;8.502;2023-02-15T00:05:47;11.03;;;6.50;;
2009;SDS011;1008;47.404;8.502;2023-02-15T00:08:14;12.10;;;6.87;;
2009;SDS011;1008;47.404;8.502;2023-02-15T00:10:41;12.50;;;6.30;;
2009;SDS011;1008;47.404;8.502;2023-02-15T00:13:09;13.90;;;6.57;;
2009;SDS011;1008;47.404;8.502;2023-02-15T00:15:35;12.03;;;6.70;;
2009;SDS011;1008;47.404;8.502;2023-02-15T00:18:02;13.47;;;7.20;;
2009;SDS011;1008;47.404;8.502;2023-02-15T00:20:29;11.73;;;6.40;;
2009;SDS011;1008;47.404;8.502;2023-02-15T00:22:56;15.00;;;7.33;;
2009;SDS011;1008;47.404;8.502;2023-02-15T00:25:23;9.50;;;6.20;;
2009;SDS011;1008;47.404;8.502;2023-02-15T00:27:49;8.40;;;5.23;;
2009;SDS011;1008;47.404;8.502;2023-02-15T00:30:18;9.83;;;5.63;;
2009;SDS011;1008;47.404;8.502;2023-02-15T00:32:45;12.73;;;5.93;;
2009;SDS011;1008;47.404;8.502;2023-02-15T00:35:13;12.83;;;7.17;;
2009;SDS011;1008;47.404;8.502;2023-02-15T00:37:40;10.57;;;5.90;;
2009;SDS011;1008;47.404;8.502;2023-02-15T00:40:07;13.67;;;6.23;;
2009;SDS011;1008;47.404;8.502;2023-02-15T00:42:35;7.00;;;5.00;;
2009;SDS011;1008;47.404;8.502;2023-02-15T00:45:01;10.60;;;5.47;;
2009;SDS011;1008;47.404;8.502;2023-02-15T00:47:30;13.57;;;5.70;;
2009;SDS011;1008;47.404;8.502;2023-02-15T00:49:56;15.30;;;6.13;;
2009;SDS011;1008;47.404;8.502;2023-02-15T00:52:23;11.60;;;6.23;;
2009;SDS011;1008;47.404;8.502;2023-02-15T00:54:50;15.50;;;6.87;;
2009;SDS011;1008;47.404;8.502;2023-02-15T00:57:16;8.13;;;5.47;;
2009;SDS011;1008;47.404;8.502;2023-02-15T00:59:43;12.20;;;6.40;;
2009;SDS011;1008;47.404;8.502;2023-02-15T01:02:10;11.40;;;6.30;;
2009;SDS011;1008;47.404;8.502;2023-02-15T01:04:38;13.57;;;6.20;;
2009;SDS011;1008;47.404;8.502;2023-02-15T01:07:05;11.63;;;6.53;;
2009;SDS011;1008;47.404;8.502;2023-02-15T01:09:31;10.20;;;5.40;;
2009;SDS011;1008;47.404;8.502;2023-02-15T01:11:58;10.50;;;5.30;;
2009;SDS011;1008;47.404;8.502;2023-02-15T01:14:25;8.00;;;5.37;;
2009;SDS011;1008;47.404;8.502;2023-02-15T01:16:52;10.17;;;6.17;;
2009;SDS011;1008;47.404;8.502;2023-02-15T01:19:18;13.97;;;6.13;;
2009;SDS011;1008;47.404;8.502;2023-02-15T01:21:46;15.57;;;5.90;;
2009;SDS011;1008;47.404;8.502;2023-02-15T01:24:13;8.40;;;5.77;;
2009;SDS011;1008;47.404;8.502;2023-02-15T01:26:40;10.17;;;5.63;;
2009;SDS011;1008;47.404;8.502;2023-02-15T01:29:07;8.43;;;5.20;;
2009;SDS011;1008;47.404;8.502;2023-02-15T01:31:34;11.50;;;6.03;;
2009;SDS011;1008;47.404;8.502;2023-02-15T01:34:01;11.10;;;5.93;;
2009;SDS011;1008;47.404;8.502;2023-02-15T01:36:28;12.43;;;6.70;;
2009;SDS011;1008;47.404;8.502;2023-02-15T01:38:56;8.43;;;5.27;;
2009;SDS011;1008;47.404;8.502;2023-02-15T01:41:23;15.07;;;6.97;;
2009;SDS011;1008;47.404;8.502;2023-02-15T01:43:52;11.50;;;4.20;;
2009;SDS011;1008;47.404;8.502;2023-02-15T01:46:22;14.23;;;5.73;;
2009;SDS011;1008;47.404;8.502;2023-02-15T01:48:55;11.13;;;6.73;;
2009;SDS011;1008;47.404;8.502;2023-02-15T01:51:26;9.07;;;4.73;;
2009;SDS011;1008;47.404;8.502;2023-02-15T01:53:57;13.20;;;7.20;;
2009;SDS011;1008;47.404;8.502;2023-02-15T01:56:29;14.17;;;7.43;;
2009;SDS011;1008;47.404;8.502;2023-02-15T01:59:00;9.00;;;5.13;;
2009;SDS011;1008;47.404;8.502;2023-02-15T02:01:30;11.23;;;5.80;;
2009;SDS011;1008;47.404;8.502;2023-02-15T02:03:58;10.47;;;6.60;;
2009;SDS011;1008;47.404;8.502;2023-02-15T02:06:29;8.67;;;5.50;;
2009;SDS011;1008;47.404;8.502;2023-02-15T02:08:59;8.47;;;6.20;;
2009;SDS011;1008;47.404;8.502;2023-02-15T02:11:26;10.73;;;6.10;;
2009;SDS011;1008;47.404;8.502;2023-02-15T02:13:54;7.53;;;5.73;;
2009;SDS011;1008;47.404;8.502;2023-02-15T02:16:22;15.20;;;6.67;;
2009;SDS011;1008;47.404;8.502;2023-02-15T02:18:55;9.50;;;5.10;;
2009;SDS011;1008;47.404;8.502;2023-02-15T02:21:38;8.50;;;6.30;;
2009;SDS011;1008;47.404;8.502;2023-02-15T02:27:28;9.90;;;6.17;;
2009;SDS011;1008;47.404;8.502;2023-02-15T02:30:06;9.23;;;5.83;;
2009;SDS011;1008;47.404;8.502;2023-02-15T02:35:49;7.97;;;4.40;;
2009;SDS011;1008;47.404;8.502;2023-02-15T02:38:23;10.77;;;5.50;;
2009;SDS011;1008;47.404;8.502;2023-02-15T02:40:58;6.73;;;4.20;;
2009;SDS011;1008;47.404;8.502;2023-02-15T02:43:37;8.80;;;5.00;;
2009;SDS011;1008;47.404;8.502;2023-02-15T02:46:10;8.87;;;5.10;;
2009;SDS011;1008;47.404;8.502;2023-02-15T02:48:45;7.33;;;4.87;;
2009;SDS011;1008;47.404;8.502;2023-02-15T02:51:12;12.83;;;6.07;;
2009;SDS011;1008;47.404;8.502;2023-02-15T02:53:45;13.30;;;7.00;;
2009;SDS011;1008;47.404;8.502;2023-02-15T02:56:13;13.13;;;5.23;;
2009;SDS011;1008;47.404;8.502;2023-02-15T02:58:47;9.13;;;5.00;;
2009;SDS011;1008;47.404;8.502;2023-02-15T03:01:18;9.27;;;4.73;;
2009;SDS011;1008;47.404;8.502;2023-02-15T03:03:52;11.07;;;5.93;;
2009;SDS011;1008;47.404;8.502;2023-02-15T03:06:24;9.80;;;5.20;;
2009;SDS011;1008;47.404;8.502;2023-02-15T03:08:56;11.07;;;5.60;;
2009;SDS011;1008;47.404;8.502;2023-02-15T03:11:27;10.00;;;5.37;;
2009;SDS011;1008;47.404;8.502;2023-02-15T03:13:55;10.03;;;5.50;;
2009;SDS011;1008;47.404;8.502;2023-02-15T03:16:22;10.13;;;5.93;;
2009;SDS011;1008;47.404;8.502;2023-02-15T03:18:54;14.53;;;6.63;;
2009;SDS011;1008;47.404;8.502;2023-02-15T03:21:24;11.67;;;4.70;;
2009;SDS011;1008;47.404;8.502;2023-02-15T03:23:57;7.87;;;5.13;;
2009;SDS011;1008;47.404;8.502;2023-02-15T03:26:30;15.40;;;7.10;;
2009;SDS011;1008;47.404;8.502;2023-02-15T03:28:59;11.47;;;6.17;;
2009;SDS011;1008;47.404;8.502;2023-02-15T03:31:28;10.10;;;5.63;;
2009;SDS011;1008;47.404;8.502;2023-02-15T03:34:00;11.60;;;6.83;;
2009;SDS011;1008;47.404;8.502;2023-02-15T03:36:31;11.40;;;5.17;;
2009;SDS011;1008;47.404;8.502;2023-02-15T03:39:04;14.20;;;5.37;;
2009;SDS011;1008;47.404;8.502;2023-02-15T03:41:37;8.73;;;5.03;;
2009;SDS011;1008;47.404;8.502;2023-02-15T03:44:09;14.23;;;5.47;;
2009;SDS011;1008;47.404;8.502;2023-02-15T03:46:42;5.70;;;4.50;;
2009;SDS011;1008;47.404;8.502;2023-02-15T03:49:14;11.20;;;5.80;;
2009;SDS011;1008;47.404;8.502;2023-02-15T03:51:48;8.20;;;6.23;;
2009;SDS011;1008;47.404;8.502;2023-02-15T03:54:16;9.73;;;5.00;;
2009;SDS011;1008;47.404;8.502;2023-02-15T03:56:59;19.80;;;6.30;;
2009;SDS011;1008;47.404;8.502;2023-02-15T03:59:40;14.53;;;7.20;;
2009;SDS011;1008;47.404;8.502;2023-02-15T04:02:25;15.57;;;6.10;;
2009;SDS011;1008;47.404;8.502;2023-02-15T04:05:00;11.67;;;5.97;;
2009;SDS011;1008;47.404;8.502;2023-02-15T04:07:27;14.93;;;7.30;;
2009;SDS011;1008;47.404;8.502;2023-02-15T04:09:54;9.13;;;5.30;;
2009;SDS011;1008;47.404;8.502;2023-02-15T04:12:38;12.80;;;6.23;;
2009;SDS011;1008;47.404;8.502;2023-02-15T04:15:05;9.53;;;7.50;;
2009;SDS011;1008;47.404;8.502;2023-02-15T04:17:50;8.77;;;5.80;;
2009;SDS011;1008;47.404;8.502;2023-02-15T04:20:18;11.67;;;7.27;;
2009;SDS011;1008;47.404;8.502;2023-02-15T04:23:05;10.73;;;6.20;;
2009;SDS011;1008;47.404;8.502;2023-02-15T04:25:49;13.87;;;6.20;;
2009;SDS011;1008;47.404;8.502;2023-02-15T04:28:16;10.87;;;7.17;;
2009;SDS011;1008;47.404;8.502;2023-02-15T04:30:43;14.20;;;7.50;;
2009;SDS011;1008;47.404;8.502;2023-02-15T04:33:09;18.00;;;6.73;;
2009;SDS011;1008;47.404;8.502;2023-02-15T04:35:38;11.30;;;6.57;;
2009;SDS011;1008;47.404;8.502;2023-02-15T04:38:04;26.47;;;5.73;;
2009;SDS011;1008;47.404;8.502;2023-02-15T04:40:31;12.50;;;7.10;;
2009;SDS011;1008;47.404;8.502;2023-02-15T04:42:58;9.40;;;6.40;;
2009;SDS011;1008;47.404;8.502;2023-02-15T04:45:26;12.07;;;7.00;;
2009;SDS011;1008;47.404;8.502;2023-02-15T04:47:53;9.77;;;6.07;;
2009;SDS011;1008;47.404;8.502;2023-02-15T04:50:20;10.80;;;6.10;;
2009;SDS011;1008;47.404;8.502;2023-02-15T04:52:48;16.03;;;6.47;;
2009;SDS011;1008;47.404;8.502;2023-02-15T04:55:15;27.23;;;8.07;;
2009;SDS011;1008;47.404;8.502;2023-02-15T04:57:42;12.90;;;6.90;;
2009;SDS011;1008;47.404;8.502;2023-02-15T05:00:09;28.23;;;6.80;;
2009;SDS011;1008;47.404;8.502;2023-02-15T05:02:36;13.90;;;7.17;;
2009;SDS011;1008;47.404;8.502;2023-02-15T05:05:03;12.60;;;6.13;;
2009;SDS011;1008;47.404;8.502;2023-02-15T05:07:30;11.63;;;6.33;;
2009;SDS011;1008;47.404;8.502;2023-02-15T05:09:58;17.13;;;6.37;;
2009;SDS011;1008;47.404;8.502;2023-02-15T05:12:24;9.07;;;5.90;;
2009;SDS011;1008;47.404;8.502;2023-02-15T05:14:51;11.57;;;6.03;;
2009;SDS011;1008;47.404;8.502;2023-02-15T05:17:18;19.43;;;6.37;;
2009;SDS011;1008;47.404;8.502;2023-02-15T05:19:45;19.53;;;7.80;;
2009;SDS011;1008;47.404;8.502;2023-02-15T05:22:11;19.20;;;6.47;;
2009;SDS011;1008;47.404;8.502;2023-02-15T05:24:38;12.43;;;7.00;;
2009;SDS011;1008;47.404;8.502;2023-02-15T05:27:23;11.70;;;5.77;;
2009;SDS011;1008;47.404;8.502;2023-02-15T05:30:08;9.63;;;5.40;;
2009;SDS011;1008;47.404;8.502;2023-02-15T05:32:36;12.50;;;6.53;;
2009;SDS011;1008;47.404;8.502;2023-02-15T05:35:03;13.87;;;6.70;;
2009;SDS011;1008;47.404;8.502;2023-02-15T05:37:30;17.33;;;7.70;;
2009;SDS011;1008;47.404;8.502;2023-02-15T05:39:57;15.93;;;7.73;;
2009;SDS011;1008;47.404;8.502;2023-02-15T05:42:25;20.13;;;7.40;;
2009;SDS011;1008;47.404;8.502;2023-02-15T05:44:52;14.20;;;6.20;;
2009;SDS011;1008;47.404;8.502;2023-02-15T05:47:18;18.83;;;8.90;;
2009;SDS011;1008;47.404;8.502;2023-02-15T05:49:45;16.47;;;8.47;;
2009;SDS011;1008;47.404;8.502;2023-02-15T05:52:12;22.63;;;6.80;;
2009;SDS011;1008;47.404;8.502;2023-02-15T05:54:39;13.67;;;7.17;;
2009;SDS011;1008;47.404;8.502;2023-02-15T05:57:05;15.23;;;6.70;;
2009;SDS011;1008;47.404;8.502;2023-02-15T05:59:33;11.50;;;7.37;;
2009;SDS011;1008;47.404;8.502;2023-02-15T06:02:00;15.30;;;7.20;;
2009;SDS011;1008;47.404;8.502;2023-02-15T06:04:27;13.53;;;6.80;;
2009;SDS011;1008;47.404;8.502;2023-02-15T06:06:54;9.60;;;5.23;;
2009;SDS011;1008;47.404;8.502;2023-02-15T06:09:20;11.07;;;6.87;;
2009;SDS011;1008;47.404;8.502;2023-02-15T06:11:47;12.73;;;7.40;;
2009;SDS011;1008;47.404;8.502;2023-02-15T06:14:14;12.87;;;5.93;;
2009;SDS011;1008;47.404;8.502;2023-02-15T06:16:42;9.83;;;6.13;;
2009;SDS011;1008;47.404;8.502;2023-02-15T06:19:09;17.20;;;6.50;;
2009;SDS011;1008;47.404;8.502;2023-02-15T06:21:35;12.87;;;7.33;;
2009;SDS011;1008;47.404;8.502;2023-02-15T06:24:02;10.53;;;6.40;;
2009;SDS011;1008;47.404;8.502;2023-02-15T06:26:29;12.67;;;6.50;;
2009;SDS011;1008;47.404;8.502;2023-02-15T06:28:56;12.70;;;7.10;;
2009;SDS011;1008;47.404;8.502;2023-02-15T06:31:23;11.57;;;7.33;;
2009;SDS011;1008;47.404;8.502;2023-02-15T06:33:51;16.00;;;6.20;;
2009;SDS011;1008;47.404;8.502;2023-02-15T06:36:19;13.37;;;7.17;;
2009;SDS011;1008;47.404;8.502;2023-02-15T06:38:45;12.30;;;7.37;;
2009;SDS011;1008;47.404;8.502;2023-02-15T06:41:12;21.63;;;5.70;;
2009;SDS011;1008;47.404;8.502;2023-02-15T06:43:39;12.23;;;6.40;;
2009;SDS011;1008;47.404;8.502;2023-02-15T06:46:05;14.57;;;7.53;;
2009;SDS011;1008;47.404;8.502;2023-02-15T06:48:32;15.97;;;7.20;;
2009;SDS011;1008;47.404;8.502;2023-02-15T06:51:00;15.50;;;8.20;;
2009;SDS011;1008;47.404;8.502;2023-02-15T06:53:27;13.47;;;8.40;;
2009;SDS011;1008;47.404;8.502;2023-02-15T06:55:59;14.13;;;7.50;;
2009;SDS011;1008;47.404;8.502;2023-02-15T06:58:27;18.07;;;8.03;;
2009;SDS011;1008;47.404;8.502;2023-02-15T07:00:54;16.90;;;6.50;;
2009;SDS011;1008;47.404;8.502;2023-02-15T07:03:21;15.37;;;6.50;;
2009;SDS011;1008;47.404;8.502;2023-02-15T07:05:47;15.10;;;6.47;;
2009;SDS011;1008;47.404;8.502;2023-02-15T07:08:16;15.30;;;7.03;;
2009;SDS011;1008;47.404;8.502;2023-02-15T07:10:45;10.93;;;6.97;;
2009;SDS011;1008;47.404;8.502;2023-02-15T07:13:11;19.53;;;7.57;;
2009;SDS011;1008;47.404;8.502;2023-02-15T07:15:37;19.30;;;8.00;;
2009;SDS011;1008;47.404;8.502;2023-02-15T07:18:04;14.00;;;6.80;;
2009;SDS011;1008;47.404;8.502;2023-02-15T07:20:34;12.47;;;7.77;;
2009;SDS011;1008;47.404;8.502;2023-02-15T07:23:00;18.03;;;8.03;;
2009;SDS011;1008;47.404;8.502;2023-02-15T07:25:29;16.47;;;7.60;;
2009;SDS011;1008;47.404;8.502;2023-02-15T07:27:56;17.50;;;8.00;;
2009;SDS011;1008;47.404;8.502;2023-02-15T07:30:23;11.03;;;7.17;;
2009;SDS011;1008;47.404;8.502;2023-02-15T07:32:50;14.47;;;7.73;;
2009;SDS011;1008;47.404;8.502;2023-02-15T07:35:38;14.23;;;7.30;;
2009;SDS011;1008;47.404;8.502;2023-02-15T07:38:11;16.53;;;7.73;;
2009;SDS011;1008;47.404;8.502;2023-02-15T07:40:39;12.80;;;7.90;;
2009;SDS011;1008;47.404;8.502;2023-02-15T07:43:06;15.77;;;7.87;;
2009;SDS011;1008;47.404;8.502;2023-02-15T07:45:33;16.10;;;6.80;;
2009;SDS011;1008;47.404;8.502;2023-02-15T07:48:00;14.73;;;7.17;;
2009;SDS011;1008;47.404;8.502;2023-02-15T07:50:27;19.30;;;9.07;;
2009;SDS011;1008;47.404;8.502;2023-02-15T07:52:53;14.60;;;7.50;;
2009;SDS011;1008;47.404;8.502;2023-02-15T07:55:20;13.83;;;6.53;;
2009;SDS011;1008;47.404;8.502;2023-02-15T07:57:49;15.33;;;9.53;;
2009;SDS011;1008;47.404;8.502;2023-02-15T08:00:17;12.57;;;8.63;;
2009;SDS011;1008;47.404;8.502;2023-02-15T08:02:49;11.57;;;6.63;;
2009;SDS011;1008;47.404;8.502;2023-02-15T08:05:36;10.17;;;6.30;;
2009;SDS011;1008;47.404;8.502;2023-02-15T08:08:03;14.53;;;7.47;;
2009;SDS011;1008;47.404;8.502;2023-02-15T08:10:31;14.93;;;8.83;;
2009;SDS011;1008;47.404;8.502;2023-02-15T08:13:16;22.10;;;9.00;;
2009;SDS011;1008;47.404;8.502;2023-02-15T08:15:47;17.00;;;7.60;;
2009;SDS011;1008;47.404;8.502;2023-02-15T08:18:14;24.13;;;8.67;;
2009;SDS011;1008;47.404;8.502;2023-02-15T08:20:41;15.23;;;8.60;;
2009;SDS011;1008;47.404;8.502;2023-02-15T08:23:08;19.93;;;10.30;;
2009;SDS011;1008;47.404;8.502;2023-02-15T08:25:35;17.40;;;9.67;;
2009;SDS011;1008;47.404;8.502;2023-02-15T08:28:02;18.67;;;8.13;;
2009;SDS011;1008;47.404;8.502;2023-02-15T08:30:30;12.47;;;7.60;;
2009;SDS011;1008;47.404;8.502;2023-02-15T08:32:56;18.47;;;9.70;;
2009;SDS011;1008;47.404;8.502;2023-02-15T08:35:24;18.87;;;9.63;;
2009;SDS011;1008;47.404;8.502;2023-02-15T08:37:51;18.70;;;8.40;;
2009;SDS011;1008;47.404;8.502;2023-02-15T08:40:17;14.60;;;8.40;;
2009;SDS011;1008;47.404;8.502;2023-02-15T08:42:44;15.93;;;6.73;;
2009;SDS011;1008;47.404;8.502;2023-02-15T08:45:11;11.17;;;7.30;;
2009;SDS011;1008;47.404;8.502;2023-02-15T08:47:39;17.20;;;9.07;;
2009;SDS011;1008;47.404;8.502;2023-02-15T08:50:06;14.23;;;8.00;;
2009;SDS011;1008;47.404;8.502;2023-02-15T08:52:33;15.00;;;7.83;;
2009;SDS011;1008;47.404;8.502;2023-02-15T08:55:00;23.07;;;9.83;;
2009;SDS011;1008;47.404;8.502;2023-02-15T08:57:26;14.37;;;8.17;;
2009;SDS011;1008;47.404;8.502;2023-02-15T08:59:54;21.20;;;11.27;;
2009;SDS011;1008;47.404;8.502;2023-02-15T09:02:20;24.30;;;10.50;;
2009;SDS011;1008;47.404;8.502;2023-02-15T09:04:49;18.93;;;9.70;;
2009;SDS011;1008;47.404;8.502;2023-02-15T09:07:16;22.10;;;9.67;;
2009;SDS011;1008;47.404;8.502;2023-02-15T09:09:43;18.17;;;9.37;;
2009;SDS011;1008;47.404;8.502;2023-02-15T09:12:11;23.07;;;10.47;;
2009;SDS011;1008;47.404;8.502;2023-02-15T09:14:38;16.47;;;8.37;;
2009;SDS011;1008;47.404;8.502;2023-02-15T09:17:05;21.03;;;9.67;;
2009;SDS011;1008;47.404;8.502;2023-02-15T09:19:31;16.20;;;9.47;;
2009;SDS011;1008;47.404;8.502;2023-02-15T09:22:00;18.73;;;8.80;;
2009;SDS011;1008;47.404;8.502;2023-02-15T09:24:26;16.43;;;8.10;;
2009;SDS011;1008;47.404;8.502;2023-02-15T09:26:53;14.03;;;9.00;;
2009;SDS011;1008;47.404;8.502;2023-02-15T09:29:20;18.97;;;8.57;;
2009;SDS011;1008;47.404;8.502;2023-02-15T09:31:48;19.37;;;8.80;;
2009;SDS011;1008;47.404;8.502;2023-02-15T09:34:16;17.33;;;8.30;;
2009;SDS011;1008;47.404;8.502;2023-02-15T09:36:44;22.70;;;11.10;;
2009;SDS011;1008;47.404;8.502;2023-02-15T09:39:14;20.50;;;9.37;;
2009;SDS011;1008;47.404;8.502;2023-02-15T09:42:04;19.27;;;9.30;;
2009;SDS011;1008;47.404;8.502;2023-02-15T09:45:01;20.13;;;9.77;;
2009;SDS011;1008;47.404;8.502;2023-02-15T09:47:46;19.33;;;9.13;;
2009;SDS011;1008;47.404;8.502;2023-02-15T09:50:24;20.70;;;12.00;;
2009;SDS011;1008;47.404;8.502;2023-02-15T09:53:05;18.87;;;9.40;;
2009;SDS011;1008;47.404;8.502;2023-02-15T09:55:51;15.93;;;9.10;;
2009;SDS011;1008;47.404;8.502;2023-02-15T09:58:25;17.70;;;9.40;;
2009;SDS011;1008;47.404;8.502;2023-02-15T10:01:02;17.27;;;9.73;;
2009;SDS011;1008;47.404;8.502;2023-02-15T10:03:39;18.27;;;9.80;;
2009;SDS011;1008;47.404;8.502;2023-02-15T10:06:28;19.03;;;9.10;;
2009;SDS011;1008;47.404;8.502;2023-02-15T10:09:12;18.27;;;7.97;;
2009;SDS011;1008;47.404;8.502;2023-02-15T10:11:58;34.43;;;15.00;;
2009;SDS011;1008;47.404;8.502;2023-02-15T10:14:45;22.17;;;10.47;;
2009;SDS011;1008;47.404;8.502;2023-02-15T10:17:36;25.30;;;10.13;;
2009;SDS011;1008;47.404;8.502;2023-02-15T10:20:13;24.27;;;11.87;;
2009;SDS011;1008;47.404;8.502;2023-02-15T10:22:52;28.03;;;11.47;;
2009;SDS011;1008;47.404;8.502;2023-02-15T10:25:31;34.43;;;12.17;;
2009;SDS011;1008;47.404;8.502;2023-02-15T10:28:11;25.67;;;11.20;;
2009;SDS011;1008;47.404;8.502;2023-02-15T10:30:44;22.47;;;10.80;;
2009;SDS011;1008;47.404;8.502;2023-02-15T10:33:16;29.07;;;11.07;;
2009;SDS011;1008;47.404;8.502;2023-02-15T10:36:03;27.53;;;10.37;;
2009;SDS011;1008;47.404;8.502;2023-02-15T10:38:44;22.87;;;10.90;;
2009;SDS011;1008;47.404;8.502;2023-02-15T10:41:24;27.57;;;13.37;;
2009;SDS011;1008;47.404;8.502;2023-02-15T10:44:08;29.23;;;12.10;;
2009;SDS011;1008;47.404;8.502;2023-02-15T10:46:57;35.70;;;13.33;;
2009;SDS011;1008;47.404;8.502;2023-02-15T10:49:36;29.73;;;12.40;;
2009;SDS011;1008;47.404;8.502;2023-02-15T10:52:17;28.67;;;12.60;;
2009;SDS011;1008;47.404;8.502;2023-02-15T10:54:56;25.83;;;11.60;;
2009;SDS011;1008;47.404;8.502;2023-02-15T10:57:35;32.03;;;12.67;;
2009;SDS011;1008;47.404;8.502;2023-02-15T11:00:15;32.30;;;12.90;;
2009;SDS011;1008;47.404;8.502;2023-02-15T11:03:02;32.83;;;15.10;;
2009;SDS011;1008;47.404;8.502;2023-02-15T11:05:42;35.07;;;13.07;;
2009;SDS011;1008;47.404;8.502;2023-02-15T11:08:16;27.63;;;12.53;;
2009;SDS011;1008;47.404;8.502;2023-02-15T11:10:44;29.67;;;13.33;;
2009;SDS011;1008;47.404;8.502;2023-02-15T11:13:16;28.90;;;12.40;;
2009;SDS011;1008;47.404;8.502;2023-02-15T11:15:48;33.33;;;14.10;;
2009;SDS011;1008;47.404;8.502;2023-02-15T11:18:19;38.93;;;13.70;;
2009;SDS011;1008;47.404;8.502;2023-02-15T11:20:52;29.97;;;14.00;;
2009;SDS011;1008;47.404;8.502;2023-02-15T11:23:24;29.63;;;11.80;;
2009;SDS011;1008;47.404;8.502;2023-02-15T11:25:54;27.40;;;13.13;;
2009;SDS011;1008;47.404;8.502;2023-02-15T11:28:24;29.43;;;13.27;;
2009;SDS011;1008;47.404;8.502;2023-02-15T11:30:57;30.80;;;13.27;;
2009;SDS011;1008;47.404;8.502;2023-02-15T11:33:29;34.97;;;13.30;;
2009;SDS011;1008;47.404;8.502;2023-02-15T11:36:01;33.50;;;14.23;;
2009;SDS011;1008;47.404;8.502;2023-02-15T11:38:33;30.30;;;13.30;;
2009;SDS011;1008;47.404;8.502;2023-02-15T11:41:01;28.57;;;13.20;;
2009;SDS011;1008;47.404;8.502;2023-02-15T11:43:33;28.87;;;13.13;;
2009;SDS011;1008;47.404;8.502;2023-02-15T11:46:05;30.00;;;13.80;;
2009;SDS011;1008;47.404;8.502;2023-02-15T11:48:36;30.80;;;14.53;;
2009;SDS011;1008;47.404;8.502;2023-02-15T11:51:03;31.07;;;13.33;;
2009;SDS011;1008;47.404;8.502;2023-02-15T11:53:32;23.87;;;12.53;;
2009;SDS011;1008;47.404;8.502;2023-02-15T11:56:02;28.20;;;13.10;;
2009;SDS011;1008;47.404;8.502;2023-02-15T11:58:32;30.37;;;13.13;;
2009;SDS011;1008;47.404;8.502;2023-02-15T12:01:08;29.10;;;13.67;;
2009;SDS011;1008;47.404;8.502;2023-02-15T12:03:42;36.90;;;14.60;;
2009;SDS011;1008;47.404;8.502;2023-02-15T12:06:14;26.77;;;13.60;;
2009;SDS011;1008;47.404;8.502;2023-02-15T12:08:48;33.90;;;14.67;;
2009;SDS011;1008;47.404;8.502;2023-02-15T12:11:19;31.97;;;13.90;;
2009;SDS011;1008;47.404;8.502;2023-02-15T12:13:56;29.70;;;14.43;;
2009;SDS011;1008;47.404;8.502;2023-02-15T12:16:25;28.57;;;12.60;;
2009;SDS011;1008;47.404;8.502;2023-02-15T12:18:54;29.47;;;12.60;;
2009;SDS011;1008;47.404;8.502;2023-02-15T12:21:27;24.97;;;12.37;;
2009;SDS011;1008;47.404;8.502;2023-02-15T12:23:57;29.70;;;13.47;;
2009;SDS011;1008;47.404;8.502;2023-02-15T12:26:28;32.30;;;15.30;;
2009;SDS011;1008;47.404;8.502;2023-02-15T12:28:57;39.73;;;14.50;;
2009;SDS011;1008;47.404;8.502;2023-02-15T12:31:30;26.67;;;12.67;;
2009;SDS011;1008;47.404;8.502;2023-02-15T12:34:02;24.73;;;12.77;;
2009;SDS011;1008;47.404;8.502;2023-02-15T12:36:40;32.17;;;14.07;;
2009;SDS011;1008;47.404;8.502;2023-02-15T12:39:18;29.93;;;13.67;;
2009;SDS011;1008;47.404;8.502;2023-02-15T12:41:56;37.77;;;15.90;;
2009;SDS011;1008;47.404;8.502;2023-02-15T12:44:26;33.07;;;15.50;;
2009;SDS011;1008;47.404;8.502;2023-02-15T12:47:00;32.57;;;13.27;;
2009;SDS011;1008;47.404;8.502;2023-02-15T12:49:29;28.47;;;13.67;;
2009;SDS011;1008;47.404;8.502;2023-02-15T12:51:58;22.37;;;11.90;;
2009;SDS011;1008;47.404;8.502;2023-02-15T12:54:32;24.27;;;12.80;;
2009;SDS011;1008;47.404;8.502;2023-02-15T12:57:14;32.43;;;12.40;;
2009;SDS011;1008;47.404;8.502;2023-02-15T12:59:48;25.20;;;12.17;;
2009;SDS011;1008;47.404;8.502;2023-02-15T13:02:19;23.73;;;12.10;;
2009;SDS011;1008;47.404;8.502;2023-02-15T13:04:49;20.73;;;11.53;;
2009;SDS011;1008;47.404;8.502;2023-02-15T13:07:16;26.20;;;12.07;;
2009;SDS011;1008;47.404;8.502;2023-02-15T13:09:43;32.33;;;13.83;;
2009;SDS011;1008;47.404;8.502;2023-02-15T13:12:15;29.57;;;12.63;;
2009;SDS011;1008;47.404;8.502;2023-02-15T13:14:44;23.30;;;11.93;;
2009;SDS011;1008;47.404;8.502;2023-02-15T13:17:15;27.90;;;12.93;;
2009;SDS011;1008;47.404;8.502;2023-02-15T13:19:46;25.17;;;12.47;;
2009;SDS011;1008;47.404;8.502;2023-02-15T13:22:17;23.03;;;11.13;;
2009;SDS011;1008;47.404;8.502;2023-02-15T13:24:48;28.30;;;12.60;;
2009;SDS011;1008;47.404;8.502;2023-02-15T13:27:18;28.13;;;11.33;;
2009;SDS011;1008;47.404;8.502;2023-02-15T13:29:48;19.63;;;10.87;;
2009;SDS011;1008;47.404;8.502;2023-02-15T13:32:24;23.03;;;12.20;;
2009;SDS011;1008;47.404;8.502;2023-02-15T13:34:53;20.40;;;11.40;;
2009;SDS011;1008;47.404;8.502;2023-02-15T13:37:33;22.40;;;11.20;;
2009;SDS011;1008;47.404;8.502;2023-02-15T13:40:15;22.50;;;11.00;;
2009;SDS011;1008;47.404;8.502;2023-02-15T13:42:49;22.50;;;11.90;;
2009;SDS011;1008;47.404;8.502;2023-02-15T13:45:25;23.03;;;11.57;;
2009;SDS011;1008;47.404;8.502;2023-02-15T13:48:01;20.97;;;10.97;;
2009;SDS011;1008;47.404;8.502;2023-02-15T13:50:48;21.97;;;11.00;;
2009;SDS011;1008;47.404;8.502;2023-02-15T13:53:41;25.93;;;13.10;;
2009;SDS011;1008;47.404;8.502;2023-02-15T13:56:25;23.70;;;12.50;;
2009;SDS011;1008;47.404;8.502;2023-02-15T13:59:02;22.57;;;11.27;;
2009;SDS011;1008;47.404;8.502;2023-02-15T14:01:53;24.43;;;12.37;;
2009;SDS011;1008;47.404;8.502;2023-02-15T14:04:32;25.07;;;13.33;;
2009;SDS011;1008;47.404;8.502;2023-02-15T14:07:25;27.20;;;11.33;;
2009;SDS011;1008;47.404;8.502;2023-02-15T14:10:09;23.17;;;11.70;;
2009;SDS011;1008;47.404;8.502;2023-02-15T14:13:03;25.30;;;13.40;;
2009;SDS011;1008;47.404;8.502;2023-02-15T14:15:52;20.20;;;11.50;;
2009;SDS011;1008;47.404;8.502;2023-02-15T14:18:28;18.80;;;11.40;;
2009;SDS011;1008;47.404;8.502;2023-02-15T14:21:03;25.93;;;12.63;;
2009;SDS011;1008;47.404;8.502;2023-02-15T14:23:42;22.07;;;11.70;;
2009;SDS011;1008;47.404;8.502;2023-02-15T14:26:19;24.47;;;12.00;;
2009;SDS011;1008;47.404;8.502;2023-02-15T14:28:55;25.97;;;12.70;;
2009;SDS011;1008;47.404;8.502;2023-02-15T14:31:32;24.00;;;12.90;;
2009;SDS011;1008;47.404;8.502;2023-02-15T14:34:01;21.70;;;12.43;;
2009;SDS011;1008;47.404;8.502;2023-02-15T14:36:30;23.33;;;11.50;;
2009;SDS011;1008;47.404;8.502;2023-02-15T14:39:00;22.10;;;12.07;;
2009;SDS011;1008;47.404;8.502;2023-02-15T14:41:58;22.90;;;12.00;;
2009;SDS011;1008;47.404;8.502;2023-02-15T14:44:30;27.37;;;12.50;;
2009;SDS011;1008;47.404;8.502;2023-02-15T14:47:04;20.83;;;11.07;;
2009;SDS011;1008;47.404;8.502;2023-02-15T14:49:36;23.10;;;11.63;;
2009;SDS011;1008;47.404;8.502;2023-02-15T14:52:06;24.87;;;11.17;;
2009;SDS011;1008;47.404;8.502;2023-02-15T14:57:27;25.00;;;11.80;;
2009;SDS011;1008;47.404;8.502;2023-02-15T14:59:57;22.77;;;11.37;;
2009;SDS011;1008;47.404;8.502;2023-02-15T15:02:27;23.30;;;11.80;;
2009;SDS011;1008;47.404;8.502;2023-02-15T15:04:58;26.03;;;12.00;;
2009;SDS011;1008;47.404;8.502;2023-02-15T15:07:35;25.53;;;12.57;;
2009;SDS011;1008;47.404;8.502;2023-02-15T15:10:05;21.37;;;11.33;;
2009;SDS011;1008;47.404;8.502;2023-02-15T15:12:53;24.13;;;11.50;;
2009;SDS011;1008;47.404;8.502;2023-02-15T15:15:32;18.77;;;11.17;;
2009;SDS011;1008;47.404;8.502;2023-02-15T15:18:03;25.20;;;12.07;;
2009;SDS011;1008;47.404;8.502;2023-02-15T15:20:39;20.10;;;11.40;;
2009;SDS011;1008;47.404;8.502;2023-02-15T15:28:53;23.93;;;12.07;;
2009;SDS011;1008;47.404;8.502;2023-02-15T15:31:33;23.90;;;11.70;;
2009;SDS011;1008;47.404;8.502;2023-02-15T15:34:17;26.23;;;11.90;;
2009;SDS011;1008;47.404;8.502;2023-02-15T15:49:41;26.17;;;12.57;;
2009;SDS011;1008;47.404;8.502;2023-02-15T15:52:12;35.40;;;13.07;;